sensor_id;sensor_type;location;lat;lon;timestamp;P1;durP1;ratioP1;P2;durP2;ratioP2
83410;SDS011;73340;53.132;8.174;2024-01-11T00:00:03;43.53;;;17.37;;
83410;SDS011;73340;53.132;8.174;2024-01-11T00:02:29;39.65;;;17.42;;
83410;SDS011;73340;53.132;8.174;2024-01-11T00:04:54;39.37;;;16.70;;
83410;SDS011;73340;53.132;8.174;2024-01-11T00:07:19;48.17;;;16.37;;
83410;SDS011;73340;53.132;8.174;2024-01-11T00:09:44;52.33;;;19.80;;
83410;SDS011;73340;53.132;8.174;2024-01-11T00:12:09;54.20;;;19.20;;
83410;SDS011;73340;53.132;8.174;2024-01-11T00:14:35;51.97;;;18.57;;
83410;SDS011;73340;53.132;8.174;2024-01-11T00:17:00;51.53;;;18.15;;
83410;SDS011;73340;53.132;8.174;2024-01-11T00:19:26;56.27;;;20.10;;
83410;SDS011;73340;53.132;8.174;2024-01-11T00:21:51;51.53;;;18.93;;
83410;SDS011;73340;53.132;8.174;2024-01-11T00:24:16;61.03;;;19.30;;
83410;SDS011;73340;53.132;8.174;2024-01-11T00:26:41;52.33;;;18.37;;
83410;SDS011;73340;53.132;8.174;2024-01-11T00:29:07;52.17;;;16.17;;
83410;SDS011;73340;53.132;8.174;2024-01-11T00:31:32;55.13;;;18.88;;
83410;SDS011;73340;53.132;8.174;2024-01-11T00:33:57;50.50;;;18.30;;
83410;SDS011;73340;53.132;8.174;2024-01-11T00:36:22;50.30;;;18.37;;
83410;SDS011;73340;53.132;8.174;2024-01-11T00:38:48;56.07;;;18.23;;
83410;SDS011;73340;53.132;8.174;2024-01-11T00:41:13;53.63;;;18.30;;
83410;SDS011;73340;53.132;8.174;2024-01-11T00:43:38;57.78;;;20.27;;
83410;SDS011;73340;53.132;8.174;2024-01-11T00:46:03;53.97;;;18.67;;
83410;SDS011;73340;53.132;8.174;2024-01-11T00:48:29;66.70;;;19.53;;
83410;SDS011;73340;53.132;8.174;2024-01-11T00:50:54;52.90;;;20.03;;
83410;SDS011;73340;53.132;8.174;2024-01-11T00:53:19;58.00;;;20.40;;
83410;SDS011;73340;53.132;8.174;2024-01-11T00:55:44;50.75;;;17.63;;
83410;SDS011;73340;53.132;8.174;2024-01-11T00:58:10;57.53;;;19.40;;
83410;SDS011;73340;53.132;8.174;2024-01-11T01:00:35;52.03;;;18.87;;
83410;SDS011;73340;53.132;8.174;2024-01-11T01:03:00;55.27;;;17.47;;
83410;SDS011;73340;53.132;8.174;2024-01-11T01:05:25;62.33;;;18.93;;
83410;SDS011;73340;53.132;8.174;2024-01-11T01:07:50;50.30;;;18.10;;
83410;SDS011;73340;53.132;8.174;2024-01-11T01:10:16;49.27;;;16.43;;
83410;SDS011;73340;53.132;8.174;2024-01-11T01:12:41;53.17;;;18.03;;
83410;SDS011;73340;53.132;8.174;2024-01-11T01:15:06;53.77;;;17.97;;
83410;SDS011;73340;53.132;8.174;2024-01-11T01:17:31;63.03;;;18.35;;
83410;SDS011;73340;53.132;8.174;2024-01-11T01:19:57;52.90;;;20.30;;
83410;SDS011;73340;53.132;8.174;2024-01-11T01:22:22;56.70;;;18.00;;
83410;SDS011;73340;53.132;8.174;2024-01-11T01:24:47;52.13;;;16.47;;
83410;SDS011;73340;53.132;8.174;2024-01-11T01:27:13;48.57;;;16.50;;
83410;SDS011;73340;53.132;8.174;2024-01-11T01:29:38;49.93;;;16.60;;
83410;SDS011;73340;53.132;8.174;2024-01-11T01:32:03;49.53;;;18.13;;
83410;SDS011;73340;53.132;8.174;2024-01-11T01:34:28;53.83;;;17.23;;
83410;SDS011;73340;53.132;8.174;2024-01-11T01:36:53;52.53;;;17.73;;
83410;SDS011;73340;53.132;8.174;2024-01-11T01:39:19;48.87;;;16.53;;
83410;SDS011;73340;53.132;8.174;2024-01-11T01:41:44;51.57;;;20.43;;
83410;SDS011;73340;53.132;8.174;2024-01-11T01:44:09;56.03;;;17.30;;
83410;SDS011;73340;53.132;8.174;2024-01-11T01:46:34;52.93;;;18.53;;
83410;SDS011;73340;53.132;8.174;2024-01-11T01:48:59;56.83;;;17.60;;
83410;SDS011;73340;53.132;8.174;2024-01-11T01:51:26;56.85;;;18.70;;
83410;SDS011;73340;53.132;8.174;2024-01-11T01:53:52;50.47;;;17.95;;
83410;SDS011;73340;53.132;8.174;2024-01-11T01:58:43;47.75;;;14.82;;
83410;SDS011;73340;53.132;8.174;2024-01-11T02:01:08;47.70;;;14.43;;
83410;SDS011;73340;53.132;8.174;2024-01-11T02:03:33;50.03;;;16.47;;
83410;SDS011;73340;53.132;8.174;2024-01-11T02:06:00;60.35;;;21.08;;
83410;SDS011;73340;53.132;8.174;2024-01-11T02:08:25;77.57;;;24.50;;
83410;SDS011;73340;53.132;8.174;2024-01-11T02:10:52;60.17;;;18.35;;
83410;SDS011;73340;53.132;8.174;2024-01-11T02:13:17;53.95;;;18.33;;
83410;SDS011;73340;53.132;8.174;2024-01-11T02:15:43;50.63;;;16.90;;
83410;SDS011;73340;53.132;8.174;2024-01-11T02:18:08;47.85;;;15.55;;
83410;SDS011;73340;53.132;8.174;2024-01-11T02:20:35;53.72;;;17.05;;
83410;SDS011;73340;53.132;8.174;2024-01-11T02:23:08;61.00;;;18.97;;
83410;SDS011;73340;53.132;8.174;2024-01-11T02:25:33;56.70;;;20.52;;
83410;SDS011;73340;53.132;8.174;2024-01-11T02:27:58;59.80;;;18.40;;
83410;SDS011;73340;53.132;8.174;2024-01-11T02:30:24;58.87;;;20.30;;
83410;SDS011;73340;53.132;8.174;2024-01-11T02:32:49;55.30;;;17.97;;
83410;SDS011;73340;53.132;8.174;2024-01-11T02:35:15;52.90;;;18.23;;
83410;SDS011;73340;53.132;8.174;2024-01-11T02:37:40;64.68;;;19.55;;
83410;SDS011;73340;53.132;8.174;2024-01-11T02:40:06;56.60;;;18.97;;
83410;SDS011;73340;53.132;8.174;2024-01-11T02:42:32;58.13;;;20.15;;
83410;SDS011;73340;53.132;8.174;2024-01-11T02:44:57;58.43;;;20.17;;
83410;SDS011;73340;53.132;8.174;2024-01-11T02:47:23;58.93;;;20.67;;
83410;SDS011;73340;53.132;8.174;2024-01-11T02:49:48;58.17;;;19.03;;
83410;SDS011;73340;53.132;8.174;2024-01-11T02:52:13;54.67;;;18.93;;
83410;SDS011;73340;53.132;8.174;2024-01-11T02:54:38;58.63;;;19.27;;
83410;SDS011;73340;53.132;8.174;2024-01-11T02:57:04;59.73;;;18.47;;
83410;SDS011;73340;53.132;8.174;2024-01-11T02:59:29;50.03;;;17.73;;
83410;SDS011;73340;53.132;8.174;2024-01-11T03:01:54;46.57;;;16.10;;
83410;SDS011;73340;53.132;8.174;2024-01-11T03:04:19;49.87;;;15.73;;
83410;SDS011;73340;53.132;8.174;2024-01-11T03:06:45;50.63;;;16.70;;
83410;SDS011;73340;53.132;8.174;2024-01-11T03:09:10;60.53;;;18.37;;
83410;SDS011;73340;53.132;8.174;2024-01-11T03:11:35;56.87;;;20.43;;
83410;SDS011;73340;53.132;8.174;2024-01-11T03:14:02;59.83;;;17.73;;
83410;SDS011;73340;53.132;8.174;2024-01-11T03:16:27;52.03;;;17.73;;
83410;SDS011;73340;53.132;8.174;2024-01-11T03:18:52;50.97;;;17.17;;
83410;SDS011;73340;53.132;8.174;2024-01-11T03:21:18;56.80;;;19.50;;
83410;SDS011;73340;53.132;8.174;2024-01-11T03:23:43;53.50;;;18.00;;
83410;SDS011;73340;53.132;8.174;2024-01-11T03:26:12;63.23;;;19.70;;
83410;SDS011;73340;53.132;8.174;2024-01-11T03:28:37;60.65;;;20.88;;
83410;SDS011;73340;53.132;8.174;2024-01-11T03:31:02;45.57;;;18.03;;
83410;SDS011;73340;53.132;8.174;2024-01-11T03:33:27;47.80;;;16.53;;
83410;SDS011;73340;53.132;8.174;2024-01-11T03:35:53;61.57;;;21.20;;
83410;SDS011;73340;53.132;8.174;2024-01-11T03:38:18;47.93;;;14.83;;
83410;SDS011;73340;53.132;8.174;2024-01-11T03:40:43;53.33;;;17.27;;
83410;SDS011;73340;53.132;8.174;2024-01-11T03:43:08;53.77;;;17.00;;
83410;SDS011;73340;53.132;8.174;2024-01-11T03:45:33;49.37;;;17.67;;
83410;SDS011;73340;53.132;8.174;2024-01-11T03:47:59;53.83;;;19.10;;
83410;SDS011;73340;53.132;8.174;2024-01-11T03:50:24;54.27;;;16.87;;
83410;SDS011;73340;53.132;8.174;2024-01-11T03:52:49;64.07;;;21.57;;
83410;SDS011;73340;53.132;8.174;2024-01-11T03:55:14;47.33;;;15.53;;
83410;SDS011;73340;53.132;8.174;2024-01-11T03:57:39;52.00;;;17.13;;
83410;SDS011;73340;53.132;8.174;2024-01-11T04:00:05;48.67;;;16.07;;
83410;SDS011;73340;53.132;8.174;2024-01-11T04:02:31;48.72;;;15.57;;
83410;SDS011;73340;53.132;8.174;2024-01-11T04:04:56;58.05;;;17.33;;
83410;SDS011;73340;53.132;8.174;2024-01-11T04:07:21;50.03;;;16.10;;
83410;SDS011;73340;53.132;8.174;2024-01-11T04:09:47;56.60;;;16.53;;
83410;SDS011;73340;53.132;8.174;2024-01-11T04:12:12;53.90;;;15.60;;
83410;SDS011;73340;53.132;8.174;2024-01-11T04:14:38;52.50;;;17.73;;
83410;SDS011;73340;53.132;8.174;2024-01-11T04:17:03;55.50;;;18.48;;
83410;SDS011;73340;53.132;8.174;2024-01-11T04:19:29;50.27;;;15.70;;
83410;SDS011;73340;53.132;8.174;2024-01-11T04:21:54;44.70;;;15.43;;
83410;SDS011;73340;53.132;8.174;2024-01-11T04:24:19;51.17;;;16.37;;
83410;SDS011;73340;53.132;8.174;2024-01-11T04:26:44;55.60;;;17.92;;
83410;SDS011;73340;53.132;8.174;2024-01-11T04:29:10;59.90;;;18.00;;
83410;SDS011;73340;53.132;8.174;2024-01-11T04:31:35;53.83;;;18.27;;
83410;SDS011;73340;53.132;8.174;2024-01-11T04:34:00;57.08;;;17.80;;
83410;SDS011;73340;53.132;8.174;2024-01-11T04:36:25;56.70;;;18.47;;
83410;SDS011;73340;53.132;8.174;2024-01-11T04:38:50;43.40;;;14.53;;
83410;SDS011;73340;53.132;8.174;2024-01-11T04:41:16;59.97;;;17.13;;
83410;SDS011;73340;53.132;8.174;2024-01-11T04:43:42;52.80;;;16.70;;
83410;SDS011;73340;53.132;8.174;2024-01-11T04:48:32;50.70;;;14.60;;
83410;SDS011;73340;53.132;8.174;2024-01-11T04:50:57;58.27;;;18.53;;
83410;SDS011;73340;53.132;8.174;2024-01-11T04:53:23;51.97;;;14.73;;
83410;SDS011;73340;53.132;8.174;2024-01-11T04:55:48;51.03;;;17.80;;
83410;SDS011;73340;53.132;8.174;2024-01-11T04:58:13;56.40;;;19.17;;
83410;SDS011;73340;53.132;8.174;2024-01-11T05:00:38;54.33;;;18.40;;
83410;SDS011;73340;53.132;8.174;2024-01-11T05:03:03;58.70;;;18.63;;
83410;SDS011;73340;53.132;8.174;2024-01-11T05:05:29;59.97;;;20.20;;
83410;SDS011;73340;53.132;8.174;2024-01-11T05:07:54;51.57;;;18.07;;
83410;SDS011;73340;53.132;8.174;2024-01-11T05:10:19;55.13;;;18.23;;
83410;SDS011;73340;53.132;8.174;2024-01-11T05:12:44;61.50;;;20.63;;
83410;SDS011;73340;53.132;8.174;2024-01-11T05:15:09;55.90;;;18.83;;
83410;SDS011;73340;53.132;8.174;2024-01-11T05:17:35;57.33;;;18.73;;
83410;SDS011;73340;53.132;8.174;2024-01-11T05:20:00;63.33;;;20.63;;
83410;SDS011;73340;53.132;8.174;2024-01-11T05:22:25;63.03;;;20.37;;
83410;SDS011;73340;53.132;8.174;2024-01-11T05:24:50;64.67;;;19.87;;
83410;SDS011;73340;53.132;8.174;2024-01-11T05:27:15;52.83;;;16.87;;
83410;SDS011;73340;53.132;8.174;2024-01-11T05:29:41;66.27;;;19.57;;
83410;SDS011;73340;53.132;8.174;2024-01-11T05:32:06;50.33;;;17.10;;
83410;SDS011;73340;53.132;8.174;2024-01-11T05:34:31;61.67;;;19.47;;
83410;SDS011;73340;53.132;8.174;2024-01-11T05:36:56;70.07;;;20.80;;
83410;SDS011;73340;53.132;8.174;2024-01-11T05:39:22;67.80;;;20.50;;
83410;SDS011;73340;53.132;8.174;2024-01-11T05:41:47;63.67;;;20.20;;
83410;SDS011;73340;53.132;8.174;2024-01-11T05:44:12;62.07;;;19.10;;
83410;SDS011;73340;53.132;8.174;2024-01-11T05:46:37;62.80;;;18.27;;
83410;SDS011;73340;53.132;8.174;2024-01-11T05:49:02;59.10;;;19.27;;
83410;SDS011;73340;53.132;8.174;2024-01-11T05:51:28;54.92;;;16.92;;
83410;SDS011;73340;53.132;8.174;2024-01-11T05:53:53;65.77;;;18.77;;
83410;SDS011;73340;53.132;8.174;2024-01-11T05:56:19;60.40;;;20.03;;
83410;SDS011;73340;53.132;8.174;2024-01-11T05:58:45;56.40;;;20.08;;
83410;SDS011;73340;53.132;8.174;2024-01-11T06:01:10;64.40;;;19.77;;
83410;SDS011;73340;53.132;8.174;2024-01-11T06:03:35;59.17;;;18.70;;
83410;SDS011;73340;53.132;8.174;2024-01-11T06:06:02;70.05;;;22.17;;
83410;SDS011;73340;53.132;8.174;2024-01-11T06:08:28;61.20;;;20.20;;
83410;SDS011;73340;53.132;8.174;2024-01-11T06:10:54;56.97;;;19.52;;
83410;SDS011;73340;53.132;8.174;2024-01-11T06:13:19;57.63;;;19.17;;
83410;SDS011;73340;53.132;8.174;2024-01-11T06:15:44;56.80;;;17.93;;
83410;SDS011;73340;53.132;8.174;2024-01-11T06:18:09;62.47;;;17.80;;
83410;SDS011;73340;53.132;8.174;2024-01-11T06:20:34;57.23;;;19.13;;
83410;SDS011;73340;53.132;8.174;2024-01-11T06:23:00;61.10;;;18.97;;
83410;SDS011;73340;53.132;8.174;2024-01-11T06:25:25;59.83;;;18.03;;
83410;SDS011;73340;53.132;8.174;2024-01-11T06:27:50;61.17;;;20.37;;
83410;SDS011;73340;53.132;8.174;2024-01-11T06:30:15;64.17;;;20.67;;
83410;SDS011;73340;53.132;8.174;2024-01-11T06:32:40;68.47;;;21.27;;
83410;SDS011;73340;53.132;8.174;2024-01-11T06:35:06;59.28;;;18.38;;
83410;SDS011;73340;53.132;8.174;2024-01-11T06:37:31;70.43;;;20.77;;
83410;SDS011;73340;53.132;8.174;2024-01-11T06:39:57;70.28;;;21.15;;
83410;SDS011;73340;53.132;8.174;2024-01-11T06:42:22;72.03;;;22.50;;
83410;SDS011;73340;53.132;8.174;2024-01-11T06:44:47;74.53;;;22.83;;
83410;SDS011;73340;53.132;8.174;2024-01-11T06:47:12;72.67;;;21.10;;
83410;SDS011;73340;53.132;8.174;2024-01-11T06:49:38;73.80;;;22.60;;
83410;SDS011;73340;53.132;8.174;2024-01-11T06:52:04;65.72;;;20.95;;
83410;SDS011;73340;53.132;8.174;2024-01-11T06:54:29;66.80;;;20.83;;
83410;SDS011;73340;53.132;8.174;2024-01-11T06:56:56;54.70;;;18.48;;
83410;SDS011;73340;53.132;8.174;2024-01-11T06:59:21;58.97;;;18.53;;
83410;SDS011;73340;53.132;8.174;2024-01-11T07:01:46;75.27;;;24.83;;
83410;SDS011;73340;53.132;8.174;2024-01-11T07:04:12;59.45;;;20.17;;
83410;SDS011;73340;53.132;8.174;2024-01-11T07:06:37;60.93;;;20.33;;
83410;SDS011;73340;53.132;8.174;2024-01-11T07:09:02;61.97;;;19.47;;
83410;SDS011;73340;53.132;8.174;2024-01-11T07:11:27;62.03;;;20.13;;
83410;SDS011;73340;53.132;8.174;2024-01-11T07:13:53;63.90;;;20.40;;
83410;SDS011;73340;53.132;8.174;2024-01-11T07:16:19;64.07;;;19.05;;
83410;SDS011;73340;53.132;8.174;2024-01-11T07:18:44;68.67;;;22.37;;
83410;SDS011;73340;53.132;8.174;2024-01-11T07:21:09;72.45;;;20.33;;
83410;SDS011;73340;53.132;8.174;2024-01-11T07:23:35;71.13;;;20.30;;
83410;SDS011;73340;53.132;8.174;2024-01-11T07:26:00;77.40;;;20.83;;
83410;SDS011;73340;53.132;8.174;2024-01-11T07:28:25;64.00;;;21.87;;
83410;SDS011;73340;53.132;8.174;2024-01-11T07:30:51;73.20;;;21.67;;
83410;SDS011;73340;53.132;8.174;2024-01-11T07:33:17;73.45;;;22.45;;
83410;SDS011;73340;53.132;8.174;2024-01-11T07:35:42;70.30;;;20.10;;
83410;SDS011;73340;53.132;8.174;2024-01-11T07:38:07;71.40;;;20.43;;
83410;SDS011;73340;53.132;8.174;2024-01-11T07:40:32;70.17;;;20.23;;
83410;SDS011;73340;53.132;8.174;2024-01-11T07:42:58;67.33;;;19.30;;
83410;SDS011;73340;53.132;8.174;2024-01-11T07:45:23;77.03;;;20.83;;
83410;SDS011;73340;53.132;8.174;2024-01-11T07:47:48;71.13;;;21.77;;
83410;SDS011;73340;53.132;8.174;2024-01-11T07:50:14;68.43;;;22.47;;
83410;SDS011;73340;53.132;8.174;2024-01-11T07:52:39;56.90;;;17.83;;
83410;SDS011;73340;53.132;8.174;2024-01-11T07:55:09;62.55;;;18.60;;
83410;SDS011;73340;53.132;8.174;2024-01-11T07:57:36;56.20;;;18.25;;
83410;SDS011;73340;53.132;8.174;2024-01-11T08:00:01;58.92;;;19.38;;
83410;SDS011;73340;53.132;8.174;2024-01-11T08:02:28;70.32;;;21.95;;
83410;SDS011;73340;53.132;8.174;2024-01-11T08:04:53;66.13;;;19.73;;
83410;SDS011;73340;53.132;8.174;2024-01-11T08:07:18;58.90;;;20.23;;
83410;SDS011;73340;53.132;8.174;2024-01-11T08:09:43;58.97;;;17.27;;
83410;SDS011;73340;53.132;8.174;2024-01-11T08:12:14;70.72;;;19.92;;
83410;SDS011;73340;53.132;8.174;2024-01-11T08:14:39;57.60;;;19.80;;
83410;SDS011;73340;53.132;8.174;2024-01-11T08:17:04;58.00;;;18.85;;
83410;SDS011;73340;53.132;8.174;2024-01-11T08:19:30;66.35;;;19.83;;
83410;SDS011;73340;53.132;8.174;2024-01-11T08:21:55;51.17;;;17.52;;
83410;SDS011;73340;53.132;8.174;2024-01-11T08:24:21;61.20;;;18.77;;
83410;SDS011;73340;53.132;8.174;2024-01-11T08:26:46;62.20;;;17.40;;
83410;SDS011;73340;53.132;8.174;2024-01-11T08:29:12;59.00;;;19.30;;
83410;SDS011;73340;53.132;8.174;2024-01-11T08:31:38;57.65;;;17.58;;
83410;SDS011;73340;53.132;8.174;2024-01-11T08:34:03;62.10;;;20.07;;
83410;SDS011;73340;53.132;8.174;2024-01-11T08:36:32;59.30;;;18.92;;
83410;SDS011;73340;53.132;8.174;2024-01-11T08:38:59;53.65;;;17.13;;
83410;SDS011;73340;53.132;8.174;2024-01-11T08:41:24;54.25;;;17.45;;
83410;SDS011;73340;53.132;8.174;2024-01-11T08:43:49;51.50;;;16.80;;
83410;SDS011;73340;53.132;8.174;2024-01-11T08:46:26;59.67;;;17.50;;
83410;SDS011;73340;53.132;8.174;2024-01-11T08:48:54;56.22;;;17.92;;
83410;SDS011;73340;53.132;8.174;2024-01-11T08:51:21;56.92;;;17.27;;
83410;SDS011;73340;53.132;8.174;2024-01-11T08:53:46;52.50;;;16.55;;
83410;SDS011;73340;53.132;8.174;2024-01-11T08:56:11;59.10;;;20.07;;
83410;SDS011;73340;53.132;8.174;2024-01-11T08:58:37;52.90;;;17.38;;
83410;SDS011;73340;53.132;8.174;2024-01-11T09:01:02;50.80;;;17.20;;
83410;SDS011;73340;53.132;8.174;2024-01-11T09:03:28;55.15;;;15.75;;
83410;SDS011;73340;53.132;8.174;2024-01-11T09:05:53;52.10;;;17.17;;
83410;SDS011;73340;53.132;8.174;2024-01-11T09:08:22;56.42;;;18.08;;
83410;SDS011;73340;53.132;8.174;2024-01-11T09:10:47;55.13;;;18.55;;
83410;SDS011;73340;53.132;8.174;2024-01-11T09:13:12;58.30;;;18.17;;
83410;SDS011;73340;53.132;8.174;2024-01-11T09:15:37;68.90;;;18.90;;
83410;SDS011;73340;53.132;8.174;2024-01-11T09:18:03;61.17;;;19.25;;
83410;SDS011;73340;53.132;8.174;2024-01-11T09:20:28;58.30;;;17.58;;
83410;SDS011;73340;53.132;8.174;2024-01-11T09:22:53;67.97;;;19.70;;
83410;SDS011;73340;53.132;8.174;2024-01-11T09:25:19;63.33;;;19.55;;
83410;SDS011;73340;53.132;8.174;2024-01-11T09:27:44;54.57;;;18.13;;
83410;SDS011;73340;53.132;8.174;2024-01-11T09:30:09;59.70;;;16.63;;
83410;SDS011;73340;53.132;8.174;2024-01-11T09:32:34;63.60;;;18.77;;
83410;SDS011;73340;53.132;8.174;2024-01-11T09:35:00;60.00;;;17.88;;
83410;SDS011;73340;53.132;8.174;2024-01-11T09:37:25;55.00;;;16.93;;
83410;SDS011;73340;53.132;8.174;2024-01-11T09:39:50;55.83;;;17.57;;
83410;SDS011;73340;53.132;8.174;2024-01-11T09:42:16;63.10;;;18.87;;
83410;SDS011;73340;53.132;8.174;2024-01-11T09:44:43;49.75;;;16.15;;
83410;SDS011;73340;53.132;8.174;2024-01-11T09:47:09;58.58;;;18.13;;
83410;SDS011;73340;53.132;8.174;2024-01-11T09:49:35;53.92;;;18.35;;
83410;SDS011;73340;53.132;8.174;2024-01-11T09:52:01;54.22;;;17.60;;
83410;SDS011;73340;53.132;8.174;2024-01-11T09:54:27;50.30;;;16.63;;
83410;SDS011;73340;53.132;8.174;2024-01-11T09:56:53;53.13;;;17.33;;
83410;SDS011;73340;53.132;8.174;2024-01-11T09:59:18;61.95;;;19.52;;
83410;SDS011;73340;53.132;8.174;2024-01-11T10:01:45;53.88;;;20.38;;
83410;SDS011;73340;53.132;8.174;2024-01-11T10:04:11;60.40;;;18.08;;
83410;SDS011;73340;53.132;8.174;2024-01-11T10:06:37;57.33;;;19.75;;
83410;SDS011;73340;53.132;8.174;2024-01-11T10:09:03;56.10;;;19.40;;
83410;SDS011;73340;53.132;8.174;2024-01-11T10:11:28;55.67;;;18.17;;
83410;SDS011;73340;53.132;8.174;2024-01-11T10:13:57;60.70;;;19.43;;
83410;SDS011;73340;53.132;8.174;2024-01-11T10:16:27;53.17;;;18.80;;
83410;SDS011;73340;53.132;8.174;2024-01-11T10:18:55;56.20;;;17.25;;
83410;SDS011;73340;53.132;8.174;2024-01-11T10:21:21;53.38;;;17.05;;
83410;SDS011;73340;53.132;8.174;2024-01-11T10:23:46;52.03;;;16.92;;
83410;SDS011;73340;53.132;8.174;2024-01-11T10:26:11;51.90;;;19.57;;
83410;SDS011;73340;53.132;8.174;2024-01-11T10:28:36;55.90;;;18.03;;
83410;SDS011;73340;53.132;8.174;2024-01-11T10:31:03;66.40;;;19.75;;
83410;SDS011;73340;53.132;8.174;2024-01-11T10:33:28;51.67;;;18.25;;
83410;SDS011;73340;53.132;8.174;2024-01-11T10:35:53;53.70;;;18.77;;
83410;SDS011;73340;53.132;8.174;2024-01-11T10:38:18;59.10;;;18.93;;
83410;SDS011;73340;53.132;8.174;2024-01-11T10:40:46;52.67;;;18.80;;
83410;SDS011;73340;53.132;8.174;2024-01-11T10:43:13;56.83;;;18.63;;
83410;SDS011;73340;53.132;8.174;2024-01-11T10:45:40;54.88;;;18.02;;
83410;SDS011;73340;53.132;8.174;2024-01-11T10:48:07;59.40;;;17.15;;
83410;SDS011;73340;53.132;8.174;2024-01-11T10:50:37;55.30;;;19.30;;
83410;SDS011;73340;53.132;8.174;2024-01-11T10:53:17;55.70;;;18.63;;
83410;SDS011;73340;53.132;8.174;2024-01-11T10:55:47;52.00;;;17.10;;
83410;SDS011;73340;53.132;8.174;2024-01-11T10:58:12;48.40;;;18.50;;
83410;SDS011;73340;53.132;8.174;2024-01-11T11:00:38;58.42;;;20.00;;
83410;SDS011;73340;53.132;8.174;2024-01-11T11:03:04;57.05;;;19.45;;
83410;SDS011;73340;53.132;8.174;2024-01-11T11:05:31;46.22;;;16.15;;
83410;SDS011;73340;53.132;8.174;2024-01-11T11:07:57;63.30;;;18.58;;
83410;SDS011;73340;53.132;8.174;2024-01-11T11:10:23;54.28;;;16.95;;
83410;SDS011;73340;53.132;8.174;2024-01-11T11:12:49;53.47;;;18.70;;
83410;SDS011;73340;53.132;8.174;2024-01-11T11:15:14;49.97;;;18.77;;
83410;SDS011;73340;53.132;8.174;2024-01-11T11:17:40;52.40;;;17.33;;
83410;SDS011;73340;53.132;8.174;2024-01-11T11:22:33;45.50;;;16.15;;
83410;SDS011;73340;53.132;8.174;2024-01-11T11:25:08;47.17;;;16.30;;
83410;SDS011;73340;53.132;8.174;2024-01-11T11:27:33;44.95;;;17.23;;
83410;SDS011;73340;53.132;8.174;2024-01-11T11:29:58;43.10;;;14.93;;
83410;SDS011;73340;53.132;8.174;2024-01-11T11:32:36;44.37;;;14.73;;
83410;SDS011;73340;53.132;8.174;2024-01-11T11:35:02;42.38;;;14.07;;
83410;SDS011;73340;53.132;8.174;2024-01-11T11:37:29;42.38;;;14.52;;
83410;SDS011;73340;53.132;8.174;2024-01-11T11:39:54;41.45;;;15.95;;
83410;SDS011;73340;53.132;8.174;2024-01-11T11:42:21;47.60;;;17.83;;
83410;SDS011;73340;53.132;8.174;2024-01-11T11:44:47;46.58;;;16.25;;
83410;SDS011;73340;53.132;8.174;2024-01-11T11:47:22;46.83;;;17.83;;
83410;SDS011;73340;53.132;8.174;2024-01-11T11:49:57;46.50;;;15.27;;
83410;SDS011;73340;53.132;8.174;2024-01-11T11:52:25;40.95;;;16.50;;
83410;SDS011;73340;53.132;8.174;2024-01-11T11:54:51;46.73;;;17.10;;
83410;SDS011;73340;53.132;8.174;2024-01-11T11:57:17;44.40;;;15.35;;
83410;SDS011;73340;53.132;8.174;2024-01-11T11:59:42;43.47;;;15.07;;
83410;SDS011;73340;53.132;8.174;2024-01-11T12:02:08;44.03;;;14.70;;
83410;SDS011;73340;53.132;8.174;2024-01-11T12:04:41;42.75;;;15.48;;
83410;SDS011;73340;53.132;8.174;2024-01-11T12:07:11;40.80;;;15.23;;
83410;SDS011;73340;53.132;8.174;2024-01-11T12:09:36;48.03;;;19.03;;
83410;SDS011;73340;53.132;8.174;2024-01-11T12:12:02;41.15;;;16.00;;
83410;SDS011;73340;53.132;8.174;2024-01-11T12:14:28;40.20;;;14.88;;
83410;SDS011;73340;53.132;8.174;2024-01-11T12:16:59;39.47;;;15.48;;
83410;SDS011;73340;53.132;8.174;2024-01-11T12:19:25;35.60;;;14.48;;
83410;SDS011;73340;53.132;8.174;2024-01-11T12:21:50;40.45;;;13.50;;
83410;SDS011;73340;53.132;8.174;2024-01-11T12:24:15;58.90;;;22.90;;
83410;SDS011;73340;53.132;8.174;2024-01-11T12:26:41;55.15;;;21.73;;
83410;SDS011;73340;53.132;8.174;2024-01-11T12:29:07;42.63;;;15.05;;
83410;SDS011;73340;53.132;8.174;2024-01-11T12:31:32;42.88;;;16.73;;
83410;SDS011;73340;53.132;8.174;2024-01-11T12:33:57;45.97;;;16.77;;
83410;SDS011;73340;53.132;8.174;2024-01-11T12:36:23;30.87;;;12.27;;
83410;SDS011;73340;53.132;8.174;2024-01-11T12:38:48;35.05;;;14.07;;
83410;SDS011;73340;53.132;8.174;2024-01-11T12:41:13;34.75;;;14.30;;
83410;SDS011;73340;53.132;8.174;2024-01-11T12:43:39;37.13;;;12.32;;
83410;SDS011;73340;53.132;8.174;2024-01-11T12:48:30;29.67;;;12.67;;
83410;SDS011;73340;53.132;8.174;2024-01-11T12:50:55;31.98;;;11.73;;
83410;SDS011;73340;53.132;8.174;2024-01-11T12:53:21;32.65;;;12.50;;
83410;SDS011;73340;53.132;8.174;2024-01-11T12:55:46;37.57;;;14.17;;
83410;SDS011;73340;53.132;8.174;2024-01-11T12:58:12;39.72;;;15.00;;
83410;SDS011;73340;53.132;8.174;2024-01-11T13:00:38;31.60;;;12.30;;
83410;SDS011;73340;53.132;8.174;2024-01-11T13:03:04;31.27;;;13.57;;
83410;SDS011;73340;53.132;8.174;2024-01-11T13:05:29;36.60;;;14.93;;
83410;SDS011;73340;53.132;8.174;2024-01-11T13:08:00;33.38;;;13.63;;
83410;SDS011;73340;53.132;8.174;2024-01-11T13:10:26;35.05;;;14.18;;
83410;SDS011;73340;53.132;8.174;2024-01-11T13:15:18;33.28;;;13.73;;
83410;SDS011;73340;53.132;8.174;2024-01-11T13:17:43;29.35;;;11.63;;
83410;SDS011;73340;53.132;8.174;2024-01-11T13:20:08;36.40;;;13.03;;
83410;SDS011;73340;53.132;8.174;2024-01-11T13:22:34;37.72;;;17.85;;
83410;SDS011;73340;53.132;8.174;2024-01-11T13:29:50;31.13;;;13.68;;
83410;SDS011;73340;53.132;8.174;2024-01-11T13:32:15;36.87;;;14.80;;
83410;SDS011;73340;53.132;8.174;2024-01-11T13:37:07;33.90;;;12.70;;
83410;SDS011;73340;53.132;8.174;2024-01-11T13:39:32;36.20;;;13.97;;
83410;SDS011;73340;53.132;8.174;2024-01-11T13:41:58;31.03;;;12.73;;
83410;SDS011;73340;53.132;8.174;2024-01-11T13:44:23;29.43;;;12.57;;
83410;SDS011;73340;53.132;8.174;2024-01-11T13:46:48;33.73;;;15.40;;
83410;SDS011;73340;53.132;8.174;2024-01-11T13:49:13;28.50;;;12.40;;
83410;SDS011;73340;53.132;8.174;2024-01-11T13:54:04;36.63;;;14.95;;
83410;SDS011;73340;53.132;8.174;2024-01-11T13:56:29;29.87;;;13.63;;
83410;SDS011;73340;53.132;8.174;2024-01-11T13:58:54;34.57;;;13.97;;
83410;SDS011;73340;53.132;8.174;2024-01-11T14:01:20;33.78;;;13.48;;
83410;SDS011;73340;53.132;8.174;2024-01-11T14:03:45;35.77;;;14.20;;
83410;SDS011;73340;53.132;8.174;2024-01-11T14:06:10;36.13;;;15.20;;
83410;SDS011;73340;53.132;8.174;2024-01-11T14:08:35;32.57;;;14.33;;
83410;SDS011;73340;53.132;8.174;2024-01-11T14:11:01;36.10;;;15.40;;
83410;SDS011;73340;53.132;8.174;2024-01-11T14:13:26;34.97;;;15.37;;
83410;SDS011;73340;53.132;8.174;2024-01-11T14:15:51;30.60;;;14.67;;
83410;SDS011;73340;53.132;8.174;2024-01-11T14:18:17;34.38;;;14.75;;
83410;SDS011;73340;53.132;8.174;2024-01-11T14:20:43;36.92;;;13.07;;
83410;SDS011;73340;53.132;8.174;2024-01-11T14:23:09;38.27;;;15.77;;
83410;SDS011;73340;53.132;8.174;2024-01-11T14:25:34;35.67;;;12.37;;
83410;SDS011;73340;53.132;8.174;2024-01-11T14:27:59;41.17;;;16.30;;
83410;SDS011;73340;53.132;8.174;2024-01-11T14:30:24;78.30;;;33.00;;
83410;SDS011;73340;53.132;8.174;2024-01-11T14:32:50;38.60;;;15.77;;